sensor_id;sensor_type;location;lat;lon;timestamp;temperature;humidity
36186;DHT22;22228;53.222;7.446;2024-01-30T00:00:32;4.50;99.90
36186;DHT22;22228;53.222;7.446;2024-01-30T00:03:52;4.40;99.90
36186;DHT22;22228;53.222;7.446;2024-01-30T00:07:13;4.40;99.90
36186;DHT22;22228;53.222;7.446;2024-01-30T00:10:35;4.30;99.90
36186;DHT22;22228;53.222;7.446;2024-01-30T00:13:55;4.20;99.90
36186;DHT22;22228;53.222;7.446;2024-01-30T00:17:15;4.20;99.90
36186;DHT22;22228;53.222;7.446;2024-01-30T00:20:36;4.10;99.90
36186;DHT22;22228;53.222;7.446;2024-01-30T00:23:57;4.00;99.90
36186;DHT22;22228;53.222;7.446;2024-01-30T00:27:18;4.00;99.90
36186;DHT22;22228;53.222;7.446;2024-01-30T00:30:39;3.90;99.90
36186;DHT22;22228;53.222;7.446;2024-01-30T00:33:59;3.90;99.90
36186;DHT22;22228;53.222;7.446;2024-01-30T00:37:19;3.90;99.90
36186;DHT22;22228;53.222;7.446;2024-01-30T00:40:40;3.90;99.90
36186;DHT22;22228;53.222;7.446;2024-01-30T00:44:02;3.90;99.90
36186;DHT22;22228;53.222;7.446;2024-01-30T00:47:23;3.90;99.90
36186;DHT22;22228;53.222;7.446;2024-01-30T00:50:43;3.90;99.90
36186;DHT22;22228;53.222;7.446;2024-01-30T00:54:04;4.00;99.90
36186;DHT22;22228;53.222;7.446;2024-01-30T00:57:25;4.00;99.90
36186;DHT22;22228;53.222;7.446;2024-01-30T01:00:47;4.00;99.90
36186;DHT22;22228;53.222;7.446;2024-01-30T01:04:07;4.00;99.90
36186;DHT22;22228;53.222;7.446;2024-01-30T01:07:28;3.90;99.90
36186;DHT22;22228;53.222;7.446;2024-01-30T01:10:48;3.90;99.90
36186;DHT22;22228;53.222;7.446;2024-01-30T01:14:09;3.90;99.90
36186;DHT22;22228;53.222;7.446;2024-01-30T04:01:48;3.50;99.90
36186;DHT22;22228;53.222;7.446;2024-01-30T04:05:09;3.40;99.90
36186;DHT22;22228;53.222;7.446;2024-01-30T04:08:29;3.40;99.90
36186;DHT22;22228;53.222;7.446;2024-01-30T04:11:50;3.40;99.90
36186;DHT22;22228;53.222;7.446;2024-01-30T04:15:10;3.40;99.90
36186;DHT22;22228;53.222;7.446;2024-01-30T04:18:33;3.50;99.90
36186;DHT22;22228;53.222;7.446;2024-01-30T04:21:54;3.50;99.90
36186;DHT22;22228;53.222;7.446;2024-01-30T04:25:14;3.50;99.90
36186;DHT22;22228;53.222;7.446;2024-01-30T04:28:35;3.60;99.90
36186;DHT22;22228;53.222;7.446;2024-01-30T04:31:55;3.70;99.90
36186;DHT22;22228;53.222;7.446;2024-01-30T04:35:17;3.70;99.90
36186;DHT22;22228;53.222;7.446;2024-01-30T04:38:39;3.80;99.90
36186;DHT22;22228;53.222;7.446;2024-01-30T04:42:00;4.00;99.90
36186;DHT22;22228;53.222;7.446;2024-01-30T04:45:20;4.20;99.90
36186;DHT22;22228;53.222;7.446;2024-01-30T04:48:41;4.40;99.90
36186;DHT22;22228;53.222;7.446;2024-01-30T04:52:03;4.60;99.90
36186;DHT22;22228;53.222;7.446;2024-01-30T04:55:24;4.70;99.90
36186;DHT22;22228;53.222;7.446;2024-01-30T04:58:44;4.80;99.90
36186;DHT22;22228;53.222;7.446;2024-01-30T05:02:05;4.90;99.90
36186;DHT22;22228;53.222;7.446;2024-01-30T05:05:26;4.80;99.90
36186;DHT22;22228;53.222;7.446;2024-01-30T05:08:48;4.80;99.90
36186;DHT22;22228;53.222;7.446;2024-01-30T05:12:08;4.80;99.90
36186;DHT22;22228;53.222;7.446;2024-01-30T05:15:29;4.80;99.90
36186;DHT22;22228;53.222;7.446;2024-01-30T05:18:49;4.70;99.90
36186;DHT22;22228;53.222;7.446;2024-01-30T05:22:09;4.80;99.90
36186;DHT22;22228;53.222;7.446;2024-01-30T05:25:31;4.80;99.90
36186;DHT22;22228;53.222;7.446;2024-01-30T05:28:52;4.80;99.90
36186;DHT22;22228;53.222;7.446;2024-01-30T05:32:12;4.80;99.90
36186;DHT22;22228;53.222;7.446;2024-01-30T05:35:33;4.70;99.90
36186;DHT22;22228;53.222;7.446;2024-01-30T05:38:53;4.80;99.90
36186;DHT22;22228;53.222;7.446;2024-01-30T05:42:15;4.80;99.90
36186;DHT22;22228;53.222;7.446;2024-01-30T05:45:36;4.80;99.90
36186;DHT22;22228;53.222;7.446;2024-01-30T05:48:56;4.90;99.90
36186;DHT22;22228;53.222;7.446;2024-01-30T05:52:17;4.90;99.90
36186;DHT22;22228;53.222;7.446;2024-01-30T05:55:38;4.90;99.90
36186;DHT22;22228;53.222;7.446;2024-01-30T05:58:59;4.90;99.90
36186;DHT22;22228;53.222;7.446;2024-01-30T06:02:20;4.90;99.90
36186;DHT22;22228;53.222;7.446;2024-01-30T06:05:40;4.90;99.90
36186;DHT22;22228;53.222;7.446;2024-01-30T06:09:01;4.90;99.90
36186;DHT22;22228;53.222;7.446;2024-01-30T06:12:21;5.00;99.90
36186;DHT22;22228;53.222;7.446;2024-01-30T06:15:43;5.10;99.90
36186;DHT22;22228;53.222;7.446;2024-01-30T06:19:03;5.10;99.90
36186;DHT22;22228;53.222;7.446;2024-01-30T06:22:24;5.20;99.90
36186;DHT22;22228;53.222;7.446;2024-01-30T06:25:45;5.30;99.90
36186;DHT22;22228;53.222;7.446;2024-01-30T06:29:05;5.30;99.90
36186;DHT22;22228;53.222;7.446;2024-01-30T06:32:28;5.40;99.90
36186;DHT22;22228;53.222;7.446;2024-01-30T06:35:53;5.40;99.90
36186;DHT22;22228;53.222;7.446;2024-01-30T06:39:13;5.50;99.90
36186;DHT22;22228;53.222;7.446;2024-01-30T06:42:34;5.50;99.90
36186;DHT22;22228;53.222;7.446;2024-01-30T06:45:54;5.50;99.90
36186;DHT22;22228;53.222;7.446;2024-01-30T06:49:16;5.70;99.90
36186;DHT22;22228;53.222;7.446;2024-01-30T06:52:36;5.70;99.90
36186;DHT22;22228;53.222;7.446;2024-01-30T06:55:57;5.70;99.90
36186;DHT22;22228;53.222;7.446;2024-01-30T06:59:17;5.80;99.90
36186;DHT22;22228;53.222;7.446;2024-01-30T07:02:38;5.80;99.90
36186;DHT22;22228;53.222;7.446;2024-01-30T07:06:00;5.90;99.90
36186;DHT22;22228;53.222;7.446;2024-01-30T07:09:20;6.20;99.90
36186;DHT22;22228;53.222;7.446;2024-01-30T07:12:42;6.40;99.90
36186;DHT22;22228;53.222;7.446;2024-01-30T07:16:03;6.50;99.90
36186;DHT22;22228;53.222;7.446;2024-01-30T07:19:23;6.60;99.90
36186;DHT22;22228;53.222;7.446;2024-01-30T07:22:45;6.70;99.90
36186;DHT22;22228;53.222;7.446;2024-01-30T07:26:06;6.80;99.90
36186;DHT22;22228;53.222;7.446;2024-01-30T07:29:27;6.80;99.90
36186;DHT22;22228;53.222;7.446;2024-01-30T07:32:47;6.80;99.90
36186;DHT22;22228;53.222;7.446;2024-01-30T07:36:08;6.80;99.90
36186;DHT22;22228;53.222;7.446;2024-01-30T07:39:31;6.90;99.90
36186;DHT22;22228;53.222;7.446;2024-01-30T07:42:53;7.00;99.90
36186;DHT22;22228;53.222;7.446;2024-01-30T07:46:13;7.00;99.90
36186;DHT22;22228;53.222;7.446;2024-01-30T07:49:34;7.00;99.90
36186;DHT22;22228;53.222;7.446;2024-01-30T07:52:55;7.00;99.90
36186;DHT22;22228;53.222;7.446;2024-01-30T07:56:17;7.00;99.90
36186;DHT22;22228;53.222;7.446;2024-01-30T07:59:38;7.10;99.90
36186;DHT22;22228;53.222;7.446;2024-01-30T08:02:58;7.10;99.90
36186;DHT22;22228;53.222;7.446;2024-01-30T08:06:19;7.20;99.90
36186;DHT22;22228;53.222;7.446;2024-01-30T08:09:39;7.20;99.90
36186;DHT22;22228;53.222;7.446;2024-01-30T08:13:01;7.30;99.90
36186;DHT22;22228;53.222;7.446;2024-01-30T08:16:21;7.30;99.90
36186;DHT22;22228;53.222;7.446;2024-01-30T08:19:42;7.40;99.90
36186;DHT22;22228;53.222;7.446;2024-01-30T08:23:03;7.40;99.90
36186;DHT22;22228;53.222;7.446;2024-01-30T08:26:23;7.50;99.90
36186;DHT22;22228;53.222;7.446;2024-01-30T08:29:45;7.60;99.90
36186;DHT22;22228;53.222;7.446;2024-01-30T08:33:05;7.60;99.90
36186;DHT22;22228;53.222;7.446;2024-01-30T08:36:26;7.60;99.90
36186;DHT22;22228;53.222;7.446;2024-01-30T08:39:46;7.70;99.90
36186;DHT22;22228;53.222;7.446;2024-01-30T08:43:07;7.60;99.90
36186;DHT22;22228;53.222;7.446;2024-01-30T08:46:30;7.60;99.90
36186;DHT22;22228;53.222;7.446;2024-01-30T08:49:50;7.70;99.90
36186;DHT22;22228;53.222;7.446;2024-01-30T08:53:11;7.70;99.90
36186;DHT22;22228;53.222;7.446;2024-01-30T08:56:31;7.80;99.90
36186;DHT22;22228;53.222;7.446;2024-01-30T08:59:52;7.80;99.90
36186;DHT22;22228;53.222;7.446;2024-01-30T09:03:14;7.90;99.90
36186;DHT22;22228;53.222;7.446;2024-01-30T09:06:34;7.90;99.90
36186;DHT22;22228;53.222;7.446;2024-01-30T09:09:55;8.00;99.90
36186;DHT22;22228;53.222;7.446;2024-01-30T09:13:15;8.00;99.90
36186;DHT22;22228;53.222;7.446;2024-01-30T09:16:36;8.10;99.90
36186;DHT22;22228;53.222;7.446;2024-01-30T09:19:57;8.20;99.90
36186;DHT22;22228;53.222;7.446;2024-01-30T09:23:18;8.30;99.90
36186;DHT22;22228;53.222;7.446;2024-01-30T09:26:39;8.30;99.90
36186;DHT22;22228;53.222;7.446;2024-01-30T09:29:59;8.40;99.90
36186;DHT22;22228;53.222;7.446;2024-01-30T09:33:20;8.40;99.90
36186;DHT22;22228;53.222;7.446;2024-01-30T09:36:41;8.50;99.90
36186;DHT22;22228;53.222;7.446;2024-01-30T09:40:02;8.50;99.90
36186;DHT22;22228;53.222;7.446;2024-01-30T09:43:23;8.70;99.90
36186;DHT22;22228;53.222;7.446;2024-01-30T09:46:47;8.80;99.90
36186;DHT22;22228;53.222;7.446;2024-01-30T09:50:08;8.90;99.90
36186;DHT22;22228;53.222;7.446;2024-01-30T09:53:31;9.00;99.90
36186;DHT22;22228;53.222;7.446;2024-01-30T09:56:51;9.10;99.90
36186;DHT22;22228;53.222;7.446;2024-01-30T10:00:13;9.10;99.90
36186;DHT22;22228;53.222;7.446;2024-01-30T10:03:33;9.20;99.90
36186;DHT22;22228;53.222;7.446;2024-01-30T10:06:54;9.20;99.90
36186;DHT22;22228;53.222;7.446;2024-01-30T10:10:16;9.30;99.90
36186;DHT22;22228;53.222;7.446;2024-01-30T10:13:36;9.40;99.90
36186;DHT22;22228;53.222;7.446;2024-01-30T10:16:58;9.50;99.90
36186;DHT22;22228;53.222;7.446;2024-01-30T10:20:19;9.60;99.90
36186;DHT22;22228;53.222;7.446;2024-01-30T10:23:41;9.70;99.90
36186;DHT22;22228;53.222;7.446;2024-01-30T10:27:06;9.70;99.90
36186;DHT22;22228;53.222;7.446;2024-01-30T10:30:28;9.80;99.90
36186;DHT22;22228;53.222;7.446;2024-01-30T10:33:48;9.80;99.90
36186;DHT22;22228;53.222;7.446;2024-01-30T10:37:11;9.90;99.90
36186;DHT22;22228;53.222;7.446;2024-01-30T10:40:33;9.90;99.90
36186;DHT22;22228;53.222;7.446;2024-01-30T10:44:09;10.00;99.90
36186;DHT22;22228;53.222;7.446;2024-01-30T10:47:30;10.10;99.90
36186;DHT22;22228;53.222;7.446;2024-01-30T10:50:51;10.10;99.90
36186;DHT22;22228;53.222;7.446;2024-01-30T10:54:15;10.20;99.90
36186;DHT22;22228;53.222;7.446;2024-01-30T10:57:37;10.20;99.90
36186;DHT22;22228;53.222;7.446;2024-01-30T11:00:59;10.20;99.90
36186;DHT22;22228;53.222;7.446;2024-01-30T11:04:20;10.20;99.90
36186;DHT22;22228;53.222;7.446;2024-01-30T11:07:41;10.20;99.90
36186;DHT22;22228;53.222;7.446;2024-01-30T11:11:01;10.20;99.90
36186;DHT22;22228;53.222;7.446;2024-01-30T11:14:25;10.20;99.90
36186;DHT22;22228;53.222;7.446;2024-01-30T11:17:51;10.20;99.90
36186;DHT22;22228;53.222;7.446;2024-01-30T11:21:13;10.30;99.90
36186;DHT22;22228;53.222;7.446;2024-01-30T11:24:39;10.40;99.90
36186;DHT22;22228;53.222;7.446;2024-01-30T11:28:00;10.50;99.90
36186;DHT22;22228;53.222;7.446;2024-01-30T11:31:21;10.60;99.90
36186;DHT22;22228;53.222;7.446;2024-01-30T11:34:43;10.60;99.90
36186;DHT22;22228;53.222;7.446;2024-01-30T11:38:05;10.60;99.90
36186;DHT22;22228;53.222;7.446;2024-01-30T11:41:26;10.70;99.90
36186;DHT22;22228;53.222;7.446;2024-01-30T11:44:50;10.70;99.90
36186;DHT22;22228;53.222;7.446;2024-01-30T11:48:11;10.70;99.90
36186;DHT22;22228;53.222;7.446;2024-01-30T11:51:33;10.70;99.90
36186;DHT22;22228;53.222;7.446;2024-01-30T11:54:54;10.70;99.90
36186;DHT22;22228;53.222;7.446;2024-01-30T11:58:15;10.70;99.90
36186;DHT22;22228;53.222;7.446;2024-01-30T12:01:36;10.70;99.90
36186;DHT22;22228;53.222;7.446;2024-01-30T12:04:56;10.70;99.90
36186;DHT22;22228;53.222;7.446;2024-01-30T12:08:18;10.70;99.90
36186;DHT22;22228;53.222;7.446;2024-01-30T12:11:45;10.70;99.90
36186;DHT22;22228;53.222;7.446;2024-01-30T12:15:07;10.70;99.90
36186;DHT22;22228;53.222;7.446;2024-01-30T12:18:28;10.70;99.90
36186;DHT22;22228;53.222;7.446;2024-01-30T12:21:54;10.70;99.90
36186;DHT22;22228;53.222;7.446;2024-01-30T12:25:18;10.60;99.90
36186;DHT22;22228;53.222;7.446;2024-01-30T12:28:48;10.60;99.90
36186;DHT22;22228;53.222;7.446;2024-01-30T12:32:08;10.70;99.90
36186;DHT22;22228;53.222;7.446;2024-01-30T12:35:29;10.70;99.90
36186;DHT22;22228;53.222;7.446;2024-01-30T12:38:50;10.60;99.90
36186;DHT22;22228;53.222;7.446;2024-01-30T12:42:13;10.70;99.90
36186;DHT22;22228;53.222;7.446;2024-01-30T12:45:34;10.70;99.90
36186;DHT22;22228;53.222;7.446;2024-01-30T12:48:54;10.70;99.90
36186;DHT22;22228;53.222;7.446;2024-01-30T12:52:16;10.60;99.90
36186;DHT22;22228;53.222;7.446;2024-01-30T12:55:37;10.70;99.90
36186;DHT22;22228;53.222;7.446;2024-01-30T12:59:00;10.70;99.90
36186;DHT22;22228;53.222;7.446;2024-01-30T13:02:21;10.70;99.90
36186;DHT22;22228;53.222;7.446;2024-01-30T13:05:43;10.70;99.90
36186;DHT22;22228;53.222;7.446;2024-01-30T13:09:03;10.70;99.90
36186;DHT22;22228;53.222;7.446;2024-01-30T13:12:25;10.70;99.90
36186;DHT22;22228;53.222;7.446;2024-01-30T13:15:48;10.70;99.90
36186;DHT22;22228;53.222;7.446;2024-01-30T13:19:09;10.70;99.90
36186;DHT22;22228;53.222;7.446;2024-01-30T13:22:31;10.70;99.90
36186;DHT22;22228;53.222;7.446;2024-01-30T13:25:52;10.80;99.90
36186;DHT22;22228;53.222;7.446;2024-01-30T13:29:13;10.70;99.90
36186;DHT22;22228;53.222;7.446;2024-01-30T13:32:35;10.70;99.90
36186;DHT22;22228;53.222;7.446;2024-01-30T13:35:55;10.50;99.90
36186;DHT22;22228;53.222;7.446;2024-01-30T13:39:19;10.40;99.90
36186;DHT22;22228;53.222;7.446;2024-01-30T13:42:40;10.40;99.90
36186;DHT22;22228;53.222;7.446;2024-01-30T13:46:01;10.40;99.90
36186;DHT22;22228;53.222;7.446;2024-01-30T13:49:23;10.40;99.90
36186;DHT22;22228;53.222;7.446;2024-01-30T13:52:44;10.30;99.90
36186;DHT22;22228;53.222;7.446;2024-01-30T13:56:05;10.40;99.90
36186;DHT22;22228;53.222;7.446;2024-01-30T13:59:26;10.30;99.90
36186;DHT22;22228;53.222;7.446;2024-01-30T14:02:47;10.30;99.90
36186;DHT22;22228;53.222;7.446;2024-01-30T14:06:09;10.30;99.90
36186;DHT22;22228;53.222;7.446;2024-01-30T14:09:30;10.30;99.90
36186;DHT22;22228;53.222;7.446;2024-01-30T14:12:51;10.30;99.90
36186;DHT22;22228;53.222;7.446;2024-01-30T14:16:12;10.20;99.90
36186;DHT22;22228;53.222;7.446;2024-01-30T14:19:32;10.10;99.90
36186;DHT22;22228;53.222;7.446;2024-01-30T14:22:54;10.10;99.90
36186;DHT22;22228;53.222;7.446;2024-01-30T14:26:14;10.00;99.90
36186;DHT22;22228;53.222;7.446;2024-01-30T14:29:35;10.00;99.90
36186;DHT22;22228;53.222;7.446;2024-01-30T14:32:55;10.00;99.90
36186;DHT22;22228;53.222;7.446;2024-01-30T14:36:16;9.90;99.90
36186;DHT22;22228;53.222;7.446;2024-01-30T14:39:39;9.90;99.90
36186;DHT22;22228;53.222;7.446;2024-01-30T14:43:00;9.90;99.90
36186;DHT22;22228;53.222;7.446;2024-01-30T14:46:21;9.90;99.90
36186;DHT22;22228;53.222;7.446;2024-01-30T14:49:42;10.00;99.90
36186;DHT22;22228;53.222;7.446;2024-01-30T14:53:03;10.00;99.90
36186;DHT22;22228;53.222;7.446;2024-01-30T14:56:26;10.00;99.90
36186;DHT22;22228;53.222;7.446;2024-01-30T14:59:47;9.90;99.90
36186;DHT22;22228;53.222;7.446;2024-01-30T15:03:08;9.90;99.90
36186;DHT22;22228;53.222;7.446;2024-01-30T15:06:29;9.80;99.90
36186;DHT22;22228;53.222;7.446;2024-01-30T15:09:50;9.70;99.90
36186;DHT22;22228;53.222;7.446;2024-01-30T15:13:13;9.60;99.90
36186;DHT22;22228;53.222;7.446;2024-01-30T15:16:33;9.50;99.90
36186;DHT22;22228;53.222;7.446;2024-01-30T15:19:53;9.50;99.90
36186;DHT22;22228;53.222;7.446;2024-01-30T15:23:14;9.40;99.90
36186;DHT22;22228;53.222;7.446;2024-01-30T15:26:35;9.40;99.90
36186;DHT22;22228;53.222;7.446;2024-01-30T15:29:57;9.50;99.90
36186;DHT22;22228;53.222;7.446;2024-01-30T15:33:18;9.50;99.90
36186;DHT22;22228;53.222;7.446;2024-01-30T15:36:38;9.50;99.90
36186;DHT22;22228;53.222;7.446;2024-01-30T15:39:59;9.50;99.90
36186;DHT22;22228;53.222;7.446;2024-01-30T15:43:20;9.50;99.90
36186;DHT22;22228;53.222;7.446;2024-01-30T15:46:44;9.40;99.90
36186;DHT22;22228;53.222;7.446;2024-01-30T15:50:05;9.30;99.90
36186;DHT22;22228;53.222;7.446;2024-01-30T15:53:26;9.20;99.90
36186;DHT22;22228;53.222;7.446;2024-01-30T15:56:47;9.10;99.90
36186;DHT22;22228;53.222;7.446;2024-01-30T16:00:08;9.00;99.90
36186;DHT22;22228;53.222;7.446;2024-01-30T16:03:32;9.00;99.90
36186;DHT22;22228;53.222;7.446;2024-01-30T16:06:53;9.00;99.90
36186;DHT22;22228;53.222;7.446;2024-01-30T16:10:14;9.00;99.90
36186;DHT22;22228;53.222;7.446;2024-01-30T16:13:35;9.00;99.90
36186;DHT22;22228;53.222;7.446;2024-01-30T16:16:56;9.00;99.90
36186;DHT22;22228;53.222;7.446;2024-01-30T16:20:18;9.00;99.90
36186;DHT22;22228;53.222;7.446;2024-01-30T16:23:39;9.00;99.90
36186;DHT22;22228;53.222;7.446;2024-01-30T16:26:59;9.00;99.90
36186;DHT22;22228;53.222;7.446;2024-01-30T16:30:20;8.90;99.90
36186;DHT22;22228;53.222;7.446;2024-01-30T16:33:41;8.90;99.90
36186;DHT22;22228;53.222;7.446;2024-01-30T16:37:03;8.90;99.90
36186;DHT22;22228;53.222;7.446;2024-01-30T16:40:23;8.80;99.90
36186;DHT22;22228;53.222;7.446;2024-01-30T16:43:44;8.80;99.90
36186;DHT22;22228;53.222;7.446;2024-01-30T16:47:04;8.80;99.90
36186;DHT22;22228;53.222;7.446;2024-01-30T16:50:25;8.70;99.90
36186;DHT22;22228;53.222;7.446;2024-01-30T16:53:47;8.70;99.90
36186;DHT22;22228;53.222;7.446;2024-01-30T16:57:08;8.70;99.90
36186;DHT22;22228;53.222;7.446;2024-01-30T17:00:28;8.60;99.90
36186;DHT22;22228;53.222;7.446;2024-01-30T17:03:49;8.50;99.90
36186;DHT22;22228;53.222;7.446;2024-01-30T17:07:09;8.40;99.90
36186;DHT22;22228;53.222;7.446;2024-01-30T17:10:47;8.40;99.90
36186;DHT22;22228;53.222;7.446;2024-01-30T17:14:08;8.30;99.90
36186;DHT22;22228;53.222;7.446;2024-01-30T17:17:31;8.20;99.90
36186;DHT22;22228;53.222;7.446;2024-01-30T17:20:52;8.20;99.90
36186;DHT22;22228;53.222;7.446;2024-01-30T17:24:13;8.20;99.90
36186;DHT22;22228;53.222;7.446;2024-01-30T17:27:35;8.20;99.90
36186;DHT22;22228;53.222;7.446;2024-01-30T17:30:56;8.20;99.90
36186;DHT22;22228;53.222;7.446;2024-01-30T17:34:18;8.20;99.90
36186;DHT22;22228;53.222;7.446;2024-01-30T17:37:41;8.20;99.90
36186;DHT22;22228;53.222;7.446;2024-01-30T17:41:02;8.20;99.90
36186;DHT22;22228;53.222;7.446;2024-01-30T17:44:24;8.20;99.90
36186;DHT22;22228;53.222;7.446;2024-01-30T17:47:45;8.20;99.90
36186;DHT22;22228;53.222;7.446;2024-01-30T17:51:06;8.20;99.90
36186;DHT22;22228;53.222;7.446;2024-01-30T17:54:28;8.10;99.90
36186;DHT22;22228;53.222;7.446;2024-01-30T17:57:48;8.10;99.90
36186;DHT22;22228;53.222;7.446;2024-01-30T18:01:10;8.10;99.90
36186;DHT22;22228;53.222;7.446;2024-01-30T18:04:31;8.10;99.90
36186;DHT22;22228;53.222;7.446;2024-01-30T18:07:52;8.00;99.90
36186;DHT22;22228;53.222;7.446;2024-01-30T18:11:12;8.00;99.90
36186;DHT22;22228;53.222;7.446;2024-01-30T18:14:33;8.00;99.90
36186;DHT22;22228;53.222;7.446;2024-01-30T18:17:55;7.90;99.90
36186;DHT22;22228;53.222;7.446;2024-01-30T18:21:16;7.90;99.90
36186;DHT22;22228;53.222;7.446;2024-01-30T18:24:36;7.80;99.90
36186;DHT22;22228;53.222;7.446;2024-01-30T18:27:57;7.80;99.90
36186;DHT22;22228;53.222;7.446;2024-01-30T18:31:18;7.70;99.90
36186;DHT22;22228;53.222;7.446;2024-01-30T18:34:40;7.70;99.90
36186;DHT22;22228;53.222;7.446;2024-01-30T18:38:01;7.70;99.90
36186;DHT22;22228;53.222;7.446;2024-01-30T18:41:22;7.60;99.90
36186;DHT22;22228;53.222;7.446;2024-01-30T18:44:43;7.60;99.90
36186;DHT22;22228;53.222;7.446;2024-01-30T18:48:06;7.50;99.90
36186;DHT22;22228;53.222;7.446;2024-01-30T18:51:28;7.40;99.90
36186;DHT22;22228;53.222;7.446;2024-01-30T18:54:49;7.30;99.90
36186;DHT22;22228;53.222;7.446;2024-01-30T18:58:10;7.30;99.90
36186;DHT22;22228;53.222;7.446;2024-01-30T19:01:30;7.30;99.90
36186;DHT22;22228;53.222;7.446;2024-01-30T19:04:52;7.20;99.90
36186;DHT22;22228;53.222;7.446;2024-01-30T19:08:14;7.20;99.90
36186;DHT22;22228;53.222;7.446;2024-01-30T19:11:35;7.10;99.90
36186;DHT22;22228;53.222;7.446;2024-01-30T19:14:55;7.10;99.90
36186;DHT22;22228;53.222;7.446;2024-01-30T19:18:16;7.10;99.90
36186;DHT22;22228;53.222;7.446;2024-01-30T19:21:36;7.00;99.90
36186;DHT22;22228;53.222;7.446;2024-01-30T19:24:58;6.90;99.90
36186;DHT22;22228;53.222;7.446;2024-01-30T19:28:20;6.90;99.90
36186;DHT22;22228;53.222;7.446;2024-01-30T19:31:40;6.90;99.90
36186;DHT22;22228;53.222;7.446;2024-01-30T19:35:01;6.90;99.90
36186;DHT22;22228;53.222;7.446;2024-01-30T19:38:25;6.90;99.90
36186;DHT22;22228;53.222;7.446;2024-01-30T19:41:47;6.90;99.90
36186;DHT22;22228;53.222;7.446;2024-01-30T19:45:09;6.90;99.90
36186;DHT22;22228;53.222;7.446;2024-01-30T19:48:32;6.90;99.90
36186;DHT22;22228;53.222;7.446;2024-01-30T19:51:52;6.90;99.90
36186;DHT22;22228;53.222;7.446;2024-01-30T19:55:13;6.80;99.90
36186;DHT22;22228;53.222;7.446;2024-01-30T19:58:35;6.70;99.90
36186;DHT22;22228;53.222;7.446;2024-01-30T20:01:56;6.70;99.90
36186;DHT22;22228;53.222;7.446;2024-01-30T20:05:17;6.70;99.90
36186;DHT22;22228;53.222;7.446;2024-01-30T20:08:37;6.60;99.90
36186;DHT22;22228;53.222;7.446;2024-01-30T20:11:58;6.60;99.90
36186;DHT22;22228;53.222;7.446;2024-01-30T20:15:22;6.60;99.90
36186;DHT22;22228;53.222;7.446;2024-01-30T20:18:43;6.50;99.90
36186;DHT22;22228;53.222;7.446;2024-01-30T20:22:04;6.50;99.90
36186;DHT22;22228;53.222;7.446;2024-01-30T20:25:25;6.50;99.90
36186;DHT22;22228;53.222;7.446;2024-01-30T20:28:45;6.50;99.90
36186;DHT22;22228;53.222;7.446;2024-01-30T20:32:08;6.50;99.90
36186;DHT22;22228;53.222;7.446;2024-01-30T20:35:28;6.40;99.90
36186;DHT22;22228;53.222;7.446;2024-01-30T20:38:49;6.40;99.90
36186;DHT22;22228;53.222;7.446;2024-01-30T20:42:10;6.40;99.90
36186;DHT22;22228;53.222;7.446;2024-01-30T20:45:31;6.40;99.90
36186;DHT22;22228;53.222;7.446;2024-01-30T20:48:56;6.40;99.90
36186;DHT22;22228;53.222;7.446;2024-01-30T20:52:17;6.40;99.90
36186;DHT22;22228;53.222;7.446;2024-01-30T20:55:38;6.40;99.90
36186;DHT22;22228;53.222;7.446;2024-01-30T20:58:58;6.30;99.90
36186;DHT22;22228;53.222;7.446;2024-01-30T21:02:19;6.30;99.90
36186;DHT22;22228;53.222;7.446;2024-01-30T21:05:41;6.20;99.90
36186;DHT22;22228;53.222;7.446;2024-01-30T21:09:01;6.20;99.90
36186;DHT22;22228;53.222;7.446;2024-01-30T21:12:22;6.20;99.90
36186;DHT22;22228;53.222;7.446;2024-01-30T21:15:43;6.20;99.90
36186;DHT22;22228;53.222;7.446;2024-01-30T21:19:03;6.10;99.90
36186;DHT22;22228;53.222;7.446;2024-01-30T21:22:25;6.10;99.90
36186;DHT22;22228;53.222;7.446;2024-01-30T21:25:46;6.10;99.90
36186;DHT22;22228;53.222;7.446;2024-01-30T21:29:06;6.10;99.90
36186;DHT22;22228;53.222;7.446;2024-01-30T21:32:27;6.00;99.90
36186;DHT22;22228;53.222;7.446;2024-01-30T21:35:47;6.00;99.90
36186;DHT22;22228;53.222;7.446;2024-01-30T21:39:09;5.90;99.90
36186;DHT22;22228;53.222;7.446;2024-01-30T21:42:30;5.90;99.90
36186;DHT22;22228;53.222;7.446;2024-01-30T21:45:51;5.80;99.90
36186;DHT22;22228;53.222;7.446;2024-01-30T21:49:11;5.70;99.90
36186;DHT22;22228;53.222;7.446;2024-01-30T21:52:31;5.70;99.90
36186;DHT22;22228;53.222;7.446;2024-01-30T21:55:53;5.60;99.90
36186;DHT22;22228;53.222;7.446;2024-01-30T21:59:14;5.60;99.90
36186;DHT22;22228;53.222;7.446;2024-01-30T22:02:35;5.60;99.90
36186;DHT22;22228;53.222;7.446;2024-01-30T22:05:55;5.70;99.90
36186;DHT22;22228;53.222;7.446;2024-01-30T22:09:16;5.60;99.90
36186;DHT22;22228;53.222;7.446;2024-01-30T22:12:38;5.60;99.90
36186;DHT22;22228;53.222;7.446;2024-01-30T22:15:58;5.60;99.90
36186;DHT22;22228;53.222;7.446;2024-01-30T22:19:19;5.70;99.90
36186;DHT22;22228;53.222;7.446;2024-01-30T22:22:42;5.60;99.90
36186;DHT22;22228;53.222;7.446;2024-01-30T22:26:03;5.60;99.90
36186;DHT22;22228;53.222;7.446;2024-01-30T22:29:28;5.60;99.90
36186;DHT22;22228;53.222;7.446;2024-01-30T22:32:48;5.60;99.90
36186;DHT22;22228;53.222;7.446;2024-01-30T22:36:08;5.50;99.90
36186;DHT22;22228;53.222;7.446;2024-01-30T22:39:31;5.50;99.90
36186;DHT22;22228;53.222;7.446;2024-01-30T22:42:52;5.40;99.90
36186;DHT22;22228;53.222;7.446;2024-01-30T22:46:15;5.40;99.90
36186;DHT22;22228;53.222;7.446;2024-01-30T22:49:35;5.40;99.90
36186;DHT22;22228;53.222;7.446;2024-01-30T22:52:55;5.30;99.90
36186;DHT22;22228;53.222;7.446;2024-01-30T22:56:16;5.30;99.90
36186;DHT22;22228;53.222;7.446;2024-01-30T22:59:38;5.20;99.90
36186;DHT22;22228;53.222;7.446;2024-01-30T23:03:00;5.20;99.90
36186;DHT22;22228;53.222;7.446;2024-01-30T23:06:23;5.20;99.90
36186;DHT22;22228;53.222;7.446;2024-01-30T23:09:44;5.30;99.90
36186;DHT22;22228;53.222;7.446;2024-01-30T23:13:06;5.20;99.90
36186;DHT22;22228;53.222;7.446;2024-01-30T23:16:28;5.20;99.90
36186;DHT22;22228;53.222;7.446;2024-01-30T23:19:49;5.20;99.90
36186;DHT22;22228;53.222;7.446;2024-01-30T23:23:10;5.10;99.90
36186;DHT22;22228;53.222;7.446;2024-01-30T23:26:34;5.10;99.90
36186;DHT22;22228;53.222;7.446;2024-01-30T23:29:55;5.10;99.90
36186;DHT22;22228;53.222;7.446;2024-01-30T23:33:16;5.00;99.90
36186;DHT22;22228;53.222;7.446;2024-01-30T23:36:40;5.00;99.90
36186;DHT22;22228;53.222;7.446;2024-01-30T23:40:02;5.00;99.90
36186;DHT22;22228;53.222;7.446;2024-01-30T23:43:23;5.10;99.90
36186;DHT22;22228;53.222;7.446;2024-01-30T23:46:44;5.10;99.90
36186;DHT22;22228;53.222;7.446;2024-01-30T23:50:07;5.20;99.90
36186;DHT22;22228;53.222;7.446;2024-01-30T23:53:29;5.20;99.90
36186;DHT22;22228;53.222;7.446;2024-01-30T23:56:50;5.20;99.90
